Time;durP1;ratioP1;P1;durP2;ratioP2;P2;SDS_P1;SDS_P2;PMS_P1;PMS_P2;Temp;Humidity;BMP_temperature;BMP_pressure;BME280_temperature;BME280_humidity;BME280_pressure;Samples;Min_cycle;Max_cycle;Signal;HPM_P1;HPM_P2
2021/01/07 00:02:22;;;;;;;2.45;1.55;;;1.70;99.90;;;;;;4988319;28;20027;-85
2021/01/07 00:04:48;;;;;;;2.53;1.45;;;1.70;99.90;;;;;;4987816;28;20106;-85
2021/01/07 00:07:13;;;;;;;1.63;1.30;;;1.80;99.90;;;;;;4987538;28;20026;-85
2021/01/07 00:09:39;;;;;;;4.18;1.85;;;1.80;99.90;;;;;;4988070;28;20027;-85
2021/01/07 00:12:05;;;;;;;2.90;1.48;;;1.80;99.90;;;;;;4987929;28;20073;-86
2021/01/07 00:14:31;;;;;;;3.95;1.90;;;1.80;99.90;;;;;;4987807;28;20035;-84
2021/01/07 00:16:56;;;;;;;1.63;0.93;;;1.80;99.90;;;;;;4988177;28;20030;-84
2021/01/07 00:19:22;;;;;;;3.33;1.60;;;1.70;99.90;;;;;;4987874;28;20068;-84
2021/01/07 00:21:47;;;;;;;1.27;1.00;;;1.70;99.90;;;;;;4987918;28;20030;-84
2021/01/07 00:24:14;;;;;;;3.60;1.50;;;1.70;99.90;;;;;;4987679;28;20749;-83
2021/01/07 00:26:39;;;;;;;2.95;1.33;;;1.70;99.90;;;;;;4987965;28;20031;-84
2021/01/07 00:29:06;;;;;;;3.53;1.70;;;1.70;99.90;;;;;;4987818;28;20034;-84
2021/01/07 00:31:32;;;;;;;2.33;1.23;;;1.70;99.90;;;;;;4987993;28;20030;-83
2021/01/07 00:33:58;;;;;;;3.85;1.42;;;1.70;99.90;;;;;;4987355;28;20041;-84
2021/01/07 00:36:24;;;;;;;1.63;1.17;;;1.70;99.90;;;;;;4988002;28;20412;-84
2021/01/07 00:38:50;;;;;;;4.22;1.88;;;1.70;99.90;;;;;;4987782;28;20030;-82
2021/01/07 00:41:22;;;;;;;4.15;1.63;;;1.70;99.90;;;;;;5005082;28;20073;-85
2021/01/07 00:43:48;;;;;;;1.80;1.33;;;1.60;99.90;;;;;;4981387;28;20535;-83
2021/01/07 00:46:15;;;;;;;2.30;1.70;;;1.60;99.90;;;;;;4968182;28;20054;-83
2021/01/07 00:48:41;;;;;;;4.05;1.65;;;1.60;99.90;;;;;;4968442;28;20027;-82
2021/01/07 00:51:07;;;;;;;2.72;1.55;;;1.70;99.90;;;;;;4968451;28;20027;-83
2021/01/07 00:53:34;;;;;;;3.60;1.92;;;1.70;99.90;;;;;;4968244;28;20037;-84
2021/01/07 00:55:59;;;;;;;3.85;1.35;;;1.70;99.90;;;;;;4968144;28;20047;-84
2021/01/07 00:58:25;;;;;;;2.58;1.50;;;1.70;99.90;;;;;;4968203;28;20023;-83
2021/01/07 01:00:51;;;;;;;4.78;1.75;;;1.70;99.90;;;;;;4967924;28;20035;-83
2021/01/07 01:03:16;;;;;;;3.22;1.40;;;1.70;99.90;;;;;;4986144;28;20034;-79
2021/01/07 01:05:42;;;;;;;2.42;1.63;;;1.60;99.90;;;;;;4972239;28;20027;-81
2021/01/07 01:08:08;;;;;;;3.53;2.05;;;1.60;99.90;;;;;;4971243;28;20050;-84
2021/01/07 01:10:33;;;;;;;2.70;1.55;;;1.50;99.90;;;;;;4971800;28;20047;-84
2021/01/07 01:12:59;;;;;;;3.50;1.77;;;1.50;99.90;;;;;;4971853;28;20034;-83
2021/01/07 01:15:25;;;;;;;2.35;1.67;;;1.60;99.90;;;;;;4971510;28;20038;-83
2021/01/07 01:17:50;;;;;;;7.03;2.28;;;1.60;99.90;;;;;;4971824;28;20050;-81
2021/01/07 01:20:16;;;;;;;3.83;1.98;;;1.60;99.90;;;;;;4971387;28;20044;-82
2021/01/07 01:22:44;;;;;;;4.65;2.55;;;1.60;99.90;;;;;;4971201;28;20058;-83
2021/01/07 01:25:11;;;;;;;3.85;2.03;;;1.50;99.90;;;;;;4971454;28;20027;-83
2021/01/07 01:27:42;;;;;;;5.53;3.00;;;1.50;99.90;;;;;;4971379;28;20069;-84
2021/01/07 01:30:10;;;;;;;2.42;1.30;;;1.50;99.90;;;;;;4979587;28;20101;-82
2021/01/07 01:32:37;;;;;;;5.57;2.75;;;1.50;99.90;;;;;;4990627;28;20031;-83
2021/01/07 01:35:06;;;;;;;2.42;1.40;;;1.50;99.90;;;;;;5008235;28;20026;-80
2021/01/07 01:37:40;;;;;;;4.25;2.13;;;1.50;99.90;;;;;;4990467;28;20062;-84
2021/01/07 01:40:07;;;;;;;;;;;1.50;99.90;;;;;;4990902;28;20038;-84
2021/01/07 01:42:33;;;;;;;4.13;2.00;;;1.50;99.90;;;;;;4990690;28;19979;-84
2021/01/07 01:44:58;;;;;;;4.30;2.25;;;1.50;99.90;;;;;;4990477;28;20034;-84
2021/01/07 01:47:24;;;;;;;5.63;1.88;;;1.50;99.90;;;;;;4990769;28;20027;-84
2021/01/07 01:49:51;;;;;;;3.58;1.70;;;1.60;99.90;;;;;;4990417;28;20405;-83
2021/01/07 01:52:18;;;;;;;3.70;1.52;;;1.50;99.90;;;;;;4990316;28;20062;-84
2021/01/07 01:54:44;;;;;;;4.40;2.47;;;1.50;99.90;;;;;;5008713;28;20082;-84
2021/01/07 01:57:14;;;;;;;5.03;2.38;;;1.60;99.90;;;;;;4991707;28;20037;-83
2021/01/07 01:59:40;;;;;;;7.60;3.03;;;1.50;99.90;;;;;;4990707;28;20045;-83
2021/01/07 02:02:07;;;;;;;2.90;1.65;;;1.50;99.90;;;;;;4993521;28;20032;-82
2021/01/07 02:04:33;;;;;;;2.95;1.75;;;1.60;99.90;;;;;;4992541;28;20022;-84
2021/01/07 02:07:01;;;;;;;4.88;1.75;;;1.60;99.90;;;;;;4990633;28;20038;-84
2021/01/07 02:09:27;;;;;;;4.18;1.85;;;1.60;99.90;;;;;;4990153;28;20117;-83
2021/01/07 02:11:53;;;;;;;2.83;1.55;;;1.60;99.90;;;;;;4990378;28;20026;-83
2021/01/07 02:14:18;;;;;;;3.13;1.75;;;1.60;99.90;;;;;;4989280;28;20037;-83
2021/01/07 02:16:44;;;;;;;3.50;2.03;;;1.70;99.90;;;;;;4990006;28;20537;-84
2021/01/07 02:19:09;;;;;;;5.20;1.58;;;1.70;99.90;;;;;;4989690;28;20097;-84
2021/01/07 02:21:38;;;;;;;2.83;1.75;;;1.60;99.90;;;;;;4989970;28;20022;-85
2021/01/07 02:24:04;;;;;;;2.67;1.35;;;1.70;99.90;;;;;;4989879;28;20057;-84
2021/01/07 02:26:30;;;;;;;2.42;1.38;;;1.60;99.90;;;;;;4989663;28;20066;-84
2021/01/07 02:28:55;;;;;;;7.03;1.88;;;1.70;99.90;;;;;;4989599;28;20026;-84
2021/01/07 02:31:21;;;;;;;2.17;1.83;;;1.70;99.90;;;;;;4990186;28;20023;-85
2021/01/07 02:33:47;;;;;;;1.50;1.20;;;1.60;99.90;;;;;;4989481;28;20053;-83
2021/01/07 02:36:12;;;;;;;1.58;1.08;;;1.60;99.90;;;;;;4989243;28;20117;-84
2021/01/07 02:38:38;;;;;;;3.78;1.35;;;1.60;99.90;;;;;;4989616;28;20030;-84
2021/01/07 02:41:05;;;;;;;3.53;1.13;;;1.50;99.90;;;;;;4989187;28;20038;-84
2021/01/07 02:43:31;;;;;;;2.75;1.55;;;1.60;99.90;;;;;;4989613;28;20066;-83
2021/01/07 02:45:57;;;;;;;2.72;1.63;;;1.60;99.90;;;;;;4989811;28;20057;-84
2021/01/07 02:48:22;;;;;;;2.33;1.20;;;1.60;99.90;;;;;;4989300;28;20057;-84
2021/01/07 02:50:48;;;;;;;2.67;1.55;;;1.60;99.90;;;;;;4989401;28;20030;-83
2021/01/07 02:53:14;;;;;;;0.95;0.60;;;1.60;99.90;;;;;;5007138;28;20069;-85
2021/01/07 02:55:39;;;;;;;2.45;1.05;;;1.50;99.90;;;;;;4989496;28;20022;-85
2021/01/07 02:58:06;;;;;;;1.60;1.10;;;1.50;99.90;;;;;;4989272;28;20032;-87
2021/01/07 03:00:32;;;;;;;2.97;1.45;;;1.50;99.90;;;;;;4989127;28;20038;-83
2021/01/07 03:02:58;;;;;;;1.13;0.65;;;1.50;99.90;;;;;;4989168;28;20093;-87
2021/01/07 03:05:23;;;;;;;1.88;1.25;;;1.50;99.90;;;;;;4989409;28;20041;-83
2021/01/07 03:07:49;;;;;;;1.77;1.23;;;1.50;99.90;;;;;;5007594;28;20395;-87
2021/01/07 03:10:14;;;;;;;2.33;1.00;;;1.50;99.90;;;;;;4989192;28;20026;-84
2021/01/07 03:12:40;;;;;;;3.70;1.52;;;1.50;99.90;;;;;;4989459;28;20061;-87
2021/01/07 03:15:07;;;;;;;2.88;1.00;;;1.50;99.90;;;;;;4989055;28;20022;-87
2021/01/07 03:17:33;;;;;;;3.83;1.42;;;1.40;99.90;;;;;;4989272;28;20048;-86
2021/01/07 03:19:59;;;;;;;1.95;1.30;;;1.50;99.90;;;;;;4989362;28;20137;-87
2021/01/07 03:22:25;;;;;;;2.33;1.02;;;1.50;99.90;;;;;;4989225;28;20034;-87
2021/01/07 03:24:51;;;;;;;1.92;1.23;;;1.40;99.90;;;;;;4988874;28;20026;-92
2021/01/07 03:27:16;;;;;;;0.55;0.55;;;1.50;99.90;;;;;;4989302;28;20030;-87
2021/01/07 03:29:42;;;;;;;1.98;1.00;;;1.50;99.90;;;;;;4989369;28;20018;-89
2021/01/07 03:32:08;;;;;;;2.38;0.77;;;1.50;99.90;;;;;;4989126;28;20505;-86
2021/01/07 03:34:33;;;;;;;1.40;1.08;;;1.50;99.90;;;;;;4988811;28;20529;-88
2021/01/07 03:37:00;;;;;;;1.85;1.17;;;1.50;99.90;;;;;;4988547;28;20030;-87
2021/01/07 03:39:26;;;;;;;1.42;0.85;;;1.50;99.90;;;;;;4989280;28;20514;-86
2021/01/07 03:41:51;;;;;;;1.95;0.63;;;1.40;99.90;;;;;;4989025;28;20030;-90
2021/01/07 03:44:37;;;;;;;1.60;0.93;;;1.60;99.90;;;;;;5164309;27;20869;-86
2021/01/07 03:47:03;;;;;;;1.92;1.02;;;1.60;99.90;;;;;;5125065;28;20027;-85
2021/01/07 03:49:29;;;;;;;0.77;0.63;;;1.40;99.90;;;;;;5125212;28;20024;-84
2021/01/07 03:51:54;;;;;;;0.93;0.50;;;1.40;99.90;;;;;;5124835;28;20028;-86
2021/01/07 03:54:20;;;;;;;2.17;0.70;;;1.40;99.90;;;;;;5124964;28;20463;-87
2021/01/07 03:56:46;;;;;;;1.10;0.68;;;1.50;99.90;;;;;;5124603;28;20027;-87
2021/01/07 03:59:11;;;;;;;1.67;0.85;;;1.40;99.90;;;;;;5124850;28;20045;-88
2021/01/07 04:01:37;;;;;;;2.58;1.40;;;1.50;99.90;;;;;;5124816;28;20016;-88
2021/01/07 04:04:02;;;;;;;1.40;0.98;;;1.50;99.90;;;;;;5111866;28;20063;-87
2021/01/07 04:06:28;;;;;;;2.67;1.10;;;1.50;99.90;;;;;;5104388;28;20028;-89
2021/01/07 04:08:54;;;;;;;3.15;1.05;;;1.50;99.90;;;;;;5104714;28;20168;-85
2021/01/07 04:11:19;;;;;;;2.20;1.30;;;1.40;99.90;;;;;;5104153;28;20035;-87
2021/01/07 04:13:45;;;;;;;3.25;1.17;;;1.40;99.90;;;;;;5103984;28;20391;-87
2021/01/07 04:16:11;;;;;;;2.40;1.30;;;1.40;99.90;;;;;;5104054;28;20031;-85
2021/01/07 04:18:37;;;;;;;2.50;1.45;;;1.40;99.90;;;;;;5103855;28;20023;-88
2021/01/07 04:21:03;;;;;;;5.45;1.52;;;1.40;99.90;;;;;;5103985;28;20027;-84
2021/01/07 04:23:29;;;;;;;2.28;1.05;;;1.40;99.90;;;;;;5103674;28;20036;-84
2021/01/07 04:25:54;;;;;;;2.00;0.98;;;1.40;99.90;;;;;;5103406;28;20031;-83
2021/01/07 04:28:20;;;;;;;3.70;1.02;;;1.40;99.90;;;;;;5103515;28;20547;-82
2021/01/07 04:30:45;;;;;;;2.30;1.23;;;1.40;99.90;;;;;;5103407;28;20026;-83
2021/01/07 04:33:12;;;;;;;3.28;1.70;;;1.40;99.90;;;;;;5103267;28;20024;-81
2021/01/07 04:35:38;;;;;;;2.42;0.95;;;1.30;99.90;;;;;;5121335;28;20035;-81
2021/01/07 04:38:03;;;;;;;2.40;1.08;;;1.40;99.90;;;;;;5103289;28;20020;-80
2021/01/07 04:40:29;;;;;;;2.47;1.05;;;1.40;99.90;;;;;;5103051;28;20024;-82
2021/01/07 04:42:55;;;;;;;2.75;1.48;;;1.40;99.90;;;;;;5121553;28;20056;-80
2021/01/07 04:45:22;;;;;;;2.97;1.60;;;1.40;99.90;;;;;;5121735;28;20415;-80
2021/01/07 04:47:49;;;;;;;3.38;1.52;;;1.40;99.90;;;;;;5121268;28;20025;-80
2021/01/07 04:50:15;;;;;;;3.80;1.27;;;1.40;99.90;;;;;;5102582;28;20032;-79
2021/01/07 04:52:41;;;;;;;1.27;0.95;;;1.40;99.90;;;;;;5121370;28;20028;-80
2021/01/07 04:55:08;;;;;;;3.38;1.58;;;1.40;99.90;;;;;;5093523;28;20031;-80
2021/01/07 04:57:35;;;;;;;4.07;1.67;;;1.40;99.90;;;;;;5107662;28;20055;-79
2021/01/07 05:00:00;;;;;;;1.42;1.02;;;1.40;99.90;;;;;;5089424;28;20024;-80
2021/01/07 05:02:27;;;;;;;2.20;1.55;;;1.40;99.90;;;;;;5107339;28;20047;-80
2021/01/07 05:04:53;;;;;;;2.97;1.23;;;1.40;99.90;;;;;;5088894;28;20093;-79
2021/01/07 05:07:22;;;;;;;1.63;0.82;;;1.40;99.90;;;;;;5107587;28;20020;-81
2021/01/07 05:09:59;;;;;;;1.98;1.25;;;1.40;99.90;;;;;;5107139;28;20543;-80
2021/01/07 05:12:24;;;;;;;1.63;0.95;;;1.40;99.90;;;;;;5089415;28;20036;-80
2021/01/07 05:14:50;;;;;;;1.30;0.82;;;1.40;99.90;;;;;;5107893;28;20035;-80
2021/01/07 05:17:16;;;;;;;2.72;0.98;;;1.40;99.90;;;;;;5088723;28;20077;-81
2021/01/07 05:19:42;;;;;;;1.90;1.35;;;1.40;99.90;;;;;;5088910;28;20560;-81
2021/01/07 05:22:09;;;;;;;2.67;1.05;;;1.40;99.90;;;;;;5107070;28;20032;-82
2021/01/07 05:24:36;;;;;;;1.95;1.15;;;1.40;99.90;;;;;;5088653;28;20032;-84
2021/01/07 05:27:17;;;;;;;2.80;0.90;;;1.40;99.90;;;;;;5089228;28;20028;-83
2021/01/07 05:29:43;;;;;;;2.88;1.00;;;1.40;99.90;;;;;;5089704;28;20047;-82
2021/01/07 05:32:10;;;;;;;2.90;1.05;;;1.40;99.90;;;;;;5106936;28;20024;-83
2021/01/07 05:34:49;;;;;;;2.58;1.40;;;1.40;99.90;;;;;;5088734;28;20050;-83
2021/01/07 05:37:19;;;;;;;3.08;1.10;;;1.40;99.90;;;;;;5106629;28;20016;-83
2021/01/07 05:39:49;;;;;;;3.40;1.67;;;1.40;99.90;;;;;;5088804;28;20024;-82
2021/01/07 05:42:16;;;;;;;2.03;1.13;;;1.40;99.90;;;;;;5088126;28;20032;-83
2021/01/07 05:44:44;;;;;;;4.68;1.92;;;1.40;99.90;;;;;;5088604;28;20107;-82
2021/01/07 05:47:11;;;;;;;1.95;1.23;;;1.40;99.90;;;;;;5106717;28;20028;-82
2021/01/07 05:49:36;;;;;;;2.42;1.15;;;1.40;99.90;;;;;;5088375;28;20481;-83
2021/01/07 05:52:06;;;;;;;3.72;1.25;;;1.40;99.90;;;;;;5088521;28;20095;-84
2021/01/07 05:54:33;;;;;;;5.15;1.58;;;1.40;99.90;;;;;;5088560;28;20110;-83
2021/01/07 05:57:04;;;;;;;2.63;1.30;;;1.40;99.90;;;;;;5088111;28;20118;-83
2021/01/07 05:59:34;;;;;;;3.03;1.58;;;1.40;99.90;;;;;;5106473;28;20055;-82
2021/01/07 06:02:04;;;;;;;5.22;2.08;;;1.40;99.90;;;;;;5088224;28;20063;-81
2021/01/07 06:04:32;;;;;;;3.42;1.52;;;1.30;99.90;;;;;;5087633;28;20032;-83
2021/01/07 06:06:59;;;;;;;4.03;1.90;;;1.40;99.90;;;;;;5105625;28;20027;-82
2021/01/07 06:09:29;;;;;;;3.65;1.90;;;1.30;99.90;;;;;;5088364;28;20031;-80
2021/01/07 06:11:58;;;;;;;5.00;1.67;;;1.30;99.90;;;;;;5087877;28;20460;-81
2021/01/07 06:14:27;;;;;;;5.68;2.30;;;1.30;99.90;;;;;;5088510;28;20042;-82
2021/01/07 06:16:57;;;;;;;2.60;1.52;;;1.30;99.90;;;;;;5088429;28;20123;-82
2021/01/07 06:19:35;;;;;;;4.40;1.70;;;1.30;99.90;;;;;;5105941;28;20108;-81
2021/01/07 06:22:07;;;;;;;7.95;2.30;;;1.30;99.90;;;;;;5088004;28;20028;-82
2021/01/07 06:24:36;;;;;;;3.50;2.30;;;1.30;99.90;;;;;;5088100;28;20032;-82
2021/01/07 06:27:25;;;;;;;3.13;1.45;;;1.40;99.90;;;;;;5106072;28;20068;-82
2021/01/07 06:30:00;;;;;;;2.83;1.55;;;1.40;99.90;;;;;;5106231;28;20027;-82
2021/01/07 06:32:30;;;;;;;3.38;1.98;;;1.40;99.90;;;;;;5105995;28;20036;-82
2021/01/07 06:34:58;;;;;;;3.92;1.67;;;1.40;99.90;;;;;;5087639;28;20052;-81
2021/01/07 06:37:35;;;;;;;3.75;1.77;;;1.40;99.90;;;;;;5087628;28;20047;-82
2021/01/07 06:40:06;;;;;;;3.00;1.50;;;1.40;99.90;;;;;;5087303;28;20024;-81
2021/01/07 06:42:37;;;;;;;4.10;1.85;;;1.40;99.90;;;;;;5087070;28;20071;-82
2021/01/07 06:45:04;;;;;;;3.88;1.77;;;1.30;99.90;;;;;;5087619;28;20035;-82
2021/01/07 06:47:31;;;;;;;2.78;1.20;;;1.40;99.90;;;;;;5086890;28;20047;-80
2021/01/07 06:49:59;;;;;;;2.92;1.52;;;1.40;99.90;;;;;;5106155;28;20078;-80
2021/01/07 06:52:26;;;;;;;5.38;2.00;;;1.40;99.90;;;;;;5088558;28;20032;-80
2021/01/07 06:54:56;;;;;;;4.43;2.33;;;1.30;99.90;;;;;;5087832;28;20024;-80
2021/01/07 06:57:22;;;;;;;5.70;2.30;;;1.30;99.90;;;;;;5087839;28;20095;-81
2021/01/07 07:00:04;;;;;;;5.35;2.03;;;1.40;99.90;;;;;;5105895;28;20031;-80
2021/01/07 07:02:30;;;;;;;5.47;2.22;;;1.30;99.90;;;;;;5087317;28;20032;-82
2021/01/07 07:05:10;;;;;;;6.72;2.03;;;1.30;99.90;;;;;;5088324;28;20064;-82
2021/01/07 07:07:38;;;;;;;2.95;1.65;;;1.30;99.90;;;;;;5105976;28;20035;-79
2021/01/07 07:10:19;;;;;;;3.67;1.60;;;1.30;99.90;;;;;;5106893;28;20060;-81
2021/01/07 07:12:54;;;;;;;3.63;2.15;;;1.30;99.90;;;;;;5088296;28;20024;-79
2021/01/07 07:15:25;;;;;;;3.05;1.65;;;1.30;99.90;;;;;;5105984;28;20035;-82
2021/01/07 07:17:56;;;;;;;7.68;2.97;;;1.30;99.90;;;;;;5087405;28;20476;-82
2021/01/07 07:20:25;;;;;;;3.78;1.73;;;1.30;99.90;;;;;;5105369;28;20039;-77
2021/01/07 07:22:53;;;;;;;10.23;2.67;;;1.30;99.90;;;;;;5102801;28;20040;-82
2021/01/07 07:25:24;;;;;;;3.38;1.83;;;1.30;99.90;;;;;;5105458;28;20024;-80
2021/01/07 07:28:04;;;;;;;4.97;2.33;;;1.30;99.90;;;;;;5086699;28;20024;-81
2021/01/07 07:30:35;;;;;;;7.28;3.00;;;1.30;99.90;;;;;;5087176;28;20032;-80
2021/01/07 07:33:02;;;;;;;5.40;2.20;;;1.40;99.90;;;;;;5086884;28;20436;-79
2021/01/07 07:35:31;;;;;;;5.40;2.65;;;1.40;99.90;;;;;;5085127;28;20056;-79
2021/01/07 07:37:57;;;;;;;2.75;1.35;;;1.40;99.90;;;;;;5104449;28;20020;-79
2021/01/07 07:40:23;;;;;;;7.10;2.72;;;1.40;99.90;;;;;;5086891;28;20075;-80
2021/01/07 07:42:49;;;;;;;4.95;2.38;;;1.40;99.90;;;;;;5086196;28;20500;-80
2021/01/07 07:45:27;;;;;;;5.82;2.97;;;1.40;99.90;;;;;;5105029;28;20051;-79
2021/01/07 07:47:53;;;;;;;5.78;2.08;;;1.40;99.90;;;;;;5104834;28;20025;-81
2021/01/07 07:50:24;;;;;;;4.80;2.25;;;1.40;99.90;;;;;;5085641;28;20035;-80
2021/01/07 07:52:49;;;;;;;4.65;2.70;;;1.40;99.90;;;;;;5104453;28;20054;-79
2021/01/07 07:55:15;;;;;;;8.73;3.13;;;1.40;99.90;;;;;;5086844;28;20028;-81
2021/01/07 07:57:48;;;;;;;3.13;2.17;;;1.50;99.90;;;;;;5119908;28;20020;-80
2021/01/07 08:00:15;;;;;;;8.07;2.72;;;1.50;99.90;;;;;;5104536;28;20028;-81
2021/01/07 08:02:43;;;;;;;3.65;1.90;;;1.50;99.90;;;;;;5103445;28;20077;-80
2021/01/07 08:05:09;;;;;;;3.13;1.67;;;1.50;99.90;;;;;;5103931;28;20021;-80
2021/01/07 08:07:35;;;;;;;3.67;1.98;;;1.50;99.90;;;;;;5086345;28;20038;-80
2021/01/07 08:10:08;;;;;;;4.35;1.80;;;1.50;99.90;;;;;;5086102;28;20028;-81
2021/01/07 08:12:35;;;;;;;5.72;1.90;;;1.50;99.90;;;;;;5085704;28;20028;-81
2021/01/07 08:15:01;;;;;;;3.03;1.80;;;1.50;99.90;;;;;;5085278;28;20035;-81
2021/01/07 08:17:27;;;;;;;4.88;1.73;;;1.60;99.90;;;;;;5086063;28;20115;-81
2021/01/07 08:19:52;;;;;;;2.92;1.20;;;1.60;99.90;;;;;;5103720;28;20028;-81
2021/01/07 08:22:27;;;;;;;1.73;1.23;;;1.50;99.90;;;;;;5104139;28;20021;-82
2021/01/07 08:24:57;;;;;;;4.00;1.85;;;1.60;99.90;;;;;;5086220;28;20029;-80
2021/01/07 08:27:26;;;;;;;5.88;2.28;;;1.60;99.90;;;;;;5085673;28;20047;-81
2021/01/07 08:29:57;;;;;;;3.78;1.60;;;1.60;99.90;;;;;;5087488;28;20115;-82
2021/01/07 08:32:33;;;;;;;2.85;1.63;;;1.60;99.90;;;;;;5089698;28;20040;-82
2021/01/07 08:35:09;;;;;;;2.88;1.75;;;1.60;99.90;;;;;;5106268;28;20028;-82
2021/01/07 08:37:35;;;;;;;1.20;1.08;;;1.60;99.90;;;;;;5088528;28;20031;-85
2021/01/07 08:40:05;;;;;;;3.85;1.65;;;1.60;99.90;;;;;;5088535;28;20028;-83
2021/01/07 08:42:35;;;;;;;2.72;1.33;;;1.60;99.90;;;;;;5107150;28;20040;-83
2021/01/07 08:45:02;;;;;;;4.10;1.65;;;1.60;99.90;;;;;;5089073;28;20035;-83
2021/01/07 08:47:27;;;;;;;2.10;1.15;;;1.60;99.90;;;;;;5089364;28;20028;-84
2021/01/07 08:50:07;;;;;;;2.95;1.85;;;1.60;99.90;;;;;;5089329;28;20031;-86
2021/01/07 08:52:56;;;;;;;3.85;1.38;;;1.70;99.90;;;;;;5089599;28;20024;-82
2021/01/07 08:55:51;;;;;;;2.55;1.67;;;1.60;99.90;;;;;;5082023;28;20031;-82
2021/01/07 08:58:27;;;;;;;2.25;1.20;;;1.60;99.90;;;;;;5102938;28;20016;-80
2021/01/07 09:00:54;;;;;;;3.38;1.38;;;1.60;99.90;;;;;;5085611;28;20104;-80
2021/01/07 09:03:20;;;;;;;1.33;0.85;;;1.60;99.90;;;;;;5087267;28;20040;-79
2021/01/07 09:05:46;;;;;;;4.47;2.20;;;1.60;99.90;;;;;;5088305;28;20053;-81
2021/01/07 09:08:13;;;;;;;2.70;1.30;;;1.60;99.90;;;;;;5089007;28;20032;-81
2021/01/07 09:10:39;;;;;;;2.47;1.45;;;1.60;99.90;;;;;;5088417;28;20020;-83
2021/01/07 09:13:19;;;;;;;4.05;1.38;;;1.60;99.90;;;;;;5088902;28;20028;-83
2021/01/07 09:15:45;;;;;;;2.40;1.23;;;1.60;99.90;;;;;;5088807;28;20032;-81
2021/01/07 09:18:11;;;;;;;2.22;1.58;;;1.60;99.90;;;;;;5089174;28;20075;-81
2021/01/07 09:20:37;;;;;;;3.38;1.73;;;1.60;99.90;;;;;;5094053;28;20024;-83
2021/01/07 09:23:07;;;;;;;3.83;1.88;;;1.60;99.90;;;;;;5087278;28;20340;-81
2021/01/07 09:25:34;;;;;;;2.83;1.83;;;1.60;99.90;;;;;;5085572;28;20110;-83
2021/01/07 09:28:00;;;;;;;1.98;1.35;;;1.70;99.90;;;;;;5086595;28;20016;-83
2021/01/07 09:30:27;;;;;;;3.67;1.58;;;1.70;99.90;;;;;;5089300;28;20024;-83
2021/01/07 09:32:53;;;;;;;2.83;1.33;;;1.70;99.90;;;;;;5106756;28;20055;-81
2021/01/07 09:35:19;;;;;;;8.18;2.25;;;1.70;99.90;;;;;;5087964;28;20032;-81
2021/01/07 09:37:45;;;;;;;2.90;1.52;;;1.80;99.90;;;;;;5088822;28;20036;-81
2021/01/07 09:40:11;;;;;;;6.07;2.17;;;1.70;99.90;;;;;;5088461;28;20364;-81
2021/01/07 09:42:37;;;;;;;4.00;2.33;;;1.70;99.90;;;;;;5105777;28;20044;-81
2021/01/07 09:45:05;;;;;;;4.45;1.58;;;1.70;99.90;;;;;;5087063;28;20396;-80
2021/01/07 09:47:31;;;;;;;6.30;3.72;;;1.80;99.90;;;;;;5088022;28;20032;-82
2021/01/07 09:49:58;;;;;;;3.92;1.70;;;1.80;99.90;;;;;;5088084;28;20024;-82
2021/01/07 09:52:25;;;;;;;2.60;1.48;;;1.70;99.90;;;;;;5106925;28;20097;-82
2021/01/07 09:54:51;;;;;;;2.83;1.70;;;1.70;99.90;;;;;;5106077;28;20032;-82
2021/01/07 09:57:17;;;;;;;2.92;1.77;;;1.80;99.90;;;;;;5087935;28;20024;-82
2021/01/07 09:59:42;;;;;;;3.58;2.22;;;1.80;99.90;;;;;;5088280;28;20034;-84
2021/01/07 10:02:10;;;;;;;2.83;1.42;;;1.80;99.90;;;;;;5088180;28;20032;-83
2021/01/07 10:04:36;;;;;;;3.42;1.88;;;1.80;99.90;;;;;;5085626;28;20062;-81
2021/01/07 10:07:04;;;;;;;5.75;2.42;;;1.80;99.90;;;;;;5087726;28;20036;-80
2021/01/07 10:09:29;;;;;;;4.90;1.80;;;1.90;99.90;;;;;;5087185;28;20030;-81
2021/01/07 10:11:58;;;;;;;5.03;2.22;;;1.80;99.90;;;;;;5106465;28;20024;-81
2021/01/07 10:14:24;;;;;;;5.57;2.25;;;1.90;99.90;;;;;;5106521;28;20020;-80
2021/01/07 10:16:56;;;;;;;5.53;2.58;;;1.90;99.90;;;;;;5087004;28;20035;-81
2021/01/07 10:19:23;;;;;;;2.17;1.45;;;1.90;99.90;;;;;;5087760;28;20104;-79
2021/01/07 10:21:55;;;;;;;10.48;2.45;;;1.90;99.90;;;;;;5106086;28;20024;-81
2021/01/07 10:24:21;;;;;;;4.05;1.85;;;2.00;99.90;;;;;;5087415;28;20063;-80
2021/01/07 10:26:46;;;;;;;6.50;2.95;;;2.00;99.90;;;;;;5088110;28;20039;-81
2021/01/07 10:29:12;;;;;;;3.95;2.20;;;2.00;99.90;;;;;;5105636;28;20088;-82
2021/01/07 10:31:38;;;;;;;3.97;1.95;;;2.10;99.90;;;;;;5087261;28;20028;-83
2021/01/07 10:34:08;;;;;;;4.50;1.75;;;2.20;99.90;;;;;;5105879;28;20038;-82
2021/01/07 10:36:35;;;;;;;5.55;2.97;;;2.20;99.90;;;;;;5088930;28;20028;-82
2021/01/07 10:39:03;;;;;;;6.50;2.83;;;2.20;99.90;;;;;;5087082;28;20052;-81
2021/01/07 10:41:30;;;;;;;6.03;3.08;;;2.20;99.90;;;;;;5105422;28;20028;-81
2021/01/07 10:44:00;;;;;;;4.75;2.03;;;2.20;99.90;;;;;;5105390;28;20055;-81
2021/01/07 10:46:27;;;;;;;4.57;2.17;;;2.20;99.90;;;;;;5087059;28;20039;-81
2021/01/07 10:48:54;;;;;;;4.18;2.35;;;2.20;99.90;;;;;;5105710;28;20024;-82
2021/01/07 10:51:26;;;;;;;13.65;4.47;;;2.20;99.90;;;;;;5086039;28;20125;-82
2021/01/07 10:54:11;;;;;;;6.95;3.85;;;2.20;99.90;;;;;;5085762;28;20031;-82
2021/01/07 10:56:48;;;;;;;;;;;2.20;99.90;;;;;;5087421;28;20028;-82
2021/01/07 10:59:27;;;;;;;5.13;2.75;;;2.20;99.90;;;;;;5086577;28;19904;-83
2021/01/07 11:02:30;;;;;;;7.07;3.40;;;2.10;99.90;;;;;;5105563;28;20089;-81
2021/01/07 11:05:14;;;;;;;5.60;2.72;;;2.00;99.90;;;;;;5066155;28;20033;-81
2021/01/07 11:07:57;;;;;;;3.75;2.28;;;2.00;99.90;;;;;;5067218;28;20060;-80
2021/01/07 11:10:23;;;;;;;6.28;3.20;;;2.00;99.90;;;;;;5084945;28;20079;-81
2021/01/07 11:13:02;;;;;;;3.00;1.77;;;2.00;99.90;;;;;;5066040;28;20029;-81
2021/01/07 11:15:29;;;;;;;9.80;3.30;;;2.00;99.90;;;;;;5085096;28;20054;-83
2021/01/07 11:18:02;;;;;;;3.83;2.47;;;2.00;99.90;;;;;;5065614;28;20033;-82
2021/01/07 11:20:30;;;;;;;5.10;2.20;;;2.00;99.90;;;;;;5066158;28;20031;-83
2021/01/07 11:22:58;;;;;;;3.65;1.88;;;2.00;99.90;;;;;;5066832;28;20048;-84
2021/01/07 11:25:25;;;;;;;2.92;1.38;;;2.00;99.90;;;;;;5067265;28;20710;-82
2021/01/07 11:27:52;;;;;;;4.13;2.13;;;2.00;99.90;;;;;;5085740;28;20044;-85
2021/01/07 11:30:18;;;;;;;5.15;2.70;;;2.10;99.90;;;;;;5066731;28;20020;-83
2021/01/07 11:32:45;;;;;;;14.70;5.72;;;2.10;99.90;;;;;;5066008;28;20068;-81
2021/01/07 11:35:11;;;;;;;8.32;3.40;;;2.20;99.90;;;;;;5084224;28;20021;-81
2021/01/07 11:37:39;;;;;;;7.18;4.03;;;2.20;99.90;;;;;;5066284;28;20032;-81
2021/01/07 11:40:27;;;;;;;11.10;5.50;;;2.20;99.90;;;;;;5065807;28;20096;-80
2021/01/07 11:43:37;;;;;;;8.85;4.28;;;2.30;99.90;;;;;;5066139;28;20562;-81
2021/01/07 11:46:03;;;;;;;9.38;3.17;;;2.40;99.90;;;;;;5083986;28;20036;-82
2021/01/07 11:48:32;;;;;;;3.20;2.03;;;2.50;99.90;;;;;;5065383;28;20757;-83
2021/01/07 11:51:03;;;;;;;8.85;1.75;;;2.40;99.90;;;;;;5065396;28;20024;-84
2021/01/07 11:53:29;;;;;;;3.50;1.55;;;2.40;99.90;;;;;;5065450;28;20025;-82
2021/01/07 11:56:00;;;;;;;3.80;2.13;;;2.40;99.90;;;;;;5084496;28;20028;-81
2021/01/07 11:58:27;;;;;;;6.05;2.42;;;2.40;99.90;;;;;;5065798;28;20503;-83
2021/01/07 12:00:55;;;;;;;3.40;1.88;;;2.30;99.90;;;;;;5083638;28;20013;-80
2021/01/07 12:03:25;;;;;;;3.42;1.65;;;2.50;99.90;;;;;;5083900;28;20044;-82
2021/01/07 12:05:51;;;;;;;3.60;1.63;;;2.50;99.90;;;;;;5068685;28;20546;-80
2021/01/07 12:08:49;;;;;;;5.38;2.50;;;2.50;99.90;;;;;;5069587;28;20435;-82
2021/01/07 12:11:29;;;;;;;5.47;2.70;;;2.50;99.90;;;;;;5087818;28;20029;-83
2021/01/07 12:14:06;;;;;;;5.82;3.05;;;2.60;99.90;;;;;;5069685;28;20028;-81
2021/01/07 12:16:38;;;;;;;5.22;2.10;;;2.60;99.90;;;;;;5087620;28;20055;-80
2021/01/07 12:19:05;;;;;;;4.07;2.03;;;2.60;99.90;;;;;;5069769;28;20036;-82
2021/01/07 12:21:31;;;;;;;4.80;1.95;;;2.60;99.90;;;;;;5069849;28;20030;-81
2021/01/07 12:24:00;;;;;;;19.33;2.58;;;2.60;99.90;;;;;;5068827;28;20051;-80
2021/01/07 12:26:27;;;;;;;3.97;1.95;;;2.60;99.90;;;;;;5069766;28;20024;-81
2021/01/07 12:28:55;;;;;;;5.63;2.13;;;2.60;99.90;;;;;;5068734;28;20133;-81
2021/01/07 12:31:21;;;;;;;4.50;2.40;;;2.60;99.90;;;;;;5069536;28;20028;-81
2021/01/07 12:34:03;;;;;;;11.25;2.58;;;2.60;99.90;;;;;;5069579;28;20143;-81
2021/01/07 12:36:51;;;;;;;8.07;3.90;;;2.60;99.90;;;;;;5069198;28;20492;-84
2021/01/07 12:39:34;;;;;;;3.75;2.38;;;2.50;99.90;;;;;;5069661;28;20175;-81
2021/01/07 12:42:12;;;;;;;4.85;2.45;;;2.50;99.90;;;;;;5069683;28;20092;-80
2021/01/07 12:44:41;;;;;;;3.42;2.63;;;2.50;99.90;;;;;;5068791;28;20048;-79
2021/01/07 12:47:07;;;;;;;4.40;2.00;;;2.40;99.90;;;;;;5069390;28;20092;-81
2021/01/07 12:49:34;;;;;;;4.32;2.13;;;2.40;99.90;;;;;;5086863;28;20032;-82
2021/01/07 12:52:03;;;;;;;3.38;1.83;;;2.40;99.90;;;;;;5069551;28;20035;-83
2021/01/07 12:54:29;;;;;;;6.03;2.22;;;2.40;99.90;;;;;;5069393;28;20047;-84
2021/01/07 12:57:13;;;;;;;5.45;2.40;;;2.40;99.90;;;;;;5069029;28;20021;-84
2021/01/07 12:59:52;;;;;;;4.68;2.00;;;2.40;99.90;;;;;;5068724;28;20029;-83
2021/01/07 13:02:55;;;;;;;3.90;1.88;;;2.30;99.90;;;;;;5069694;28;20043;-85
2021/01/07 13:05:26;;;;;;;3.85;1.88;;;2.40;99.90;;;;;;5068601;28;20067;-80
2021/01/07 13:07:56;;;;;;;6.35;3.13;;;2.40;99.90;;;;;;5069232;28;20024;-84